createdAt,value
2022-08-05T00:01:35.631Z,24.18
2022-08-05T00:04:08.303Z,24.14
2022-08-05T00:06:37.552Z,24.06
2022-08-05T00:09:12.645Z,23.99
2022-08-05T00:11:48.436Z,23.87
2022-08-05T00:14:19.268Z,23.79
2022-08-05T00:16:52.638Z,23.78
2022-08-05T00:19:23.973Z,23.85
2022-08-05T00:21:54.252Z,23.88
2022-08-05T00:24:31.041Z,23.87
2022-08-05T00:27:00.513Z,23.78
2022-08-05T00:29:37.723Z,23.75
2022-08-05T00:32:12.702Z,23.75
2022-08-05T00:35:03.679Z,23.76
2022-08-05T00:37:53.482Z,23.70
2022-08-05T00:40:28.465Z,23.68
2022-08-05T00:43:00.849Z,23.66
2022-08-05T00:45:43.115Z,23.67
2022-08-05T00:48:14.450Z,23.67
2022-08-05T00:50:46.117Z,23.71
2022-08-05T00:54:00.820Z,23.74
2022-08-05T00:56:08.150Z,23.77
2022-08-05T00:58:37.266Z,23.79
2022-08-05T01:01:09.622Z,23.70
2022-08-05T01:03:38.925Z,23.90
2022-08-05T01:06:11.268Z,23.96
2022-08-05T01:08:46.370Z,23.96
2022-08-05T01:11:24.210Z,24.05
2022-08-05T01:14:08.913Z,23.90
2022-08-05T01:16:52.190Z,24.12
2022-08-05T01:20:02.451Z,24.08
2022-08-05T01:22:47.193Z,24.13
2022-08-05T01:25:40.841Z,23.98
2022-08-05T01:28:25.881Z,24.22
2022-08-05T01:30:58.936Z,24.27
2022-08-05T01:33:35.515Z,24.32
2022-08-05T01:36:12.843Z,24.28
2022-08-05T01:38:48.342Z,24.33
2022-08-05T01:41:25.726Z,24.37
2022-08-05T01:43:57.945Z,24.27
2022-08-05T01:46:42.332Z,24.42
2022-08-05T01:49:23.858Z,24.29
2022-08-05T01:51:58.774Z,24.46
2022-08-05T01:54:34.828Z,24.48
2022-08-05T01:58:11.162Z,24.47
2022-08-05T02:00:11.664Z,23.79
2022-08-05T02:02:46.484Z,24.47
2022-08-05T02:05:28.607Z,24.29
2022-08-05T02:08:01.220Z,24.54
2022-08-05T02:10:36.345Z,24.45
2022-08-05T02:13:16.024Z,24.73
2022-08-05T02:15:51.393Z,24.62
2022-08-05T02:18:30.717Z,24.67
2022-08-05T02:21:13.256Z,24.85
2022-08-05T02:23:48.465Z,24.72
2022-08-05T02:26:23.611Z,24.92
2022-08-05T02:28:58.243Z,24.89
2022-08-05T02:31:34.897Z,24.90
2022-08-05T02:34:09.371Z,24.90
2022-08-05T02:36:42.855Z,24.96
2022-08-05T02:39:12.220Z,24.92
2022-08-05T02:41:58.274Z,25.02
2022-08-05T02:44:32.291Z,25.03
2022-08-05T02:47:04.386Z,25.03
2022-08-05T02:49:40.404Z,25.00
2022-08-05T02:52:13.646Z,25.00
2022-08-05T02:55:01.964Z,24.99
2022-08-05T02:58:10.280Z,25.01
2022-08-05T03:00:26.143Z,25.03
2022-08-05T03:07:40.392Z,25.01
2022-08-05T03:10:00.594Z,25.02
2022-08-05T03:12:32.265Z,24.87
2022-08-05T03:15:01.376Z,25.04
2022-08-05T03:17:32.535Z,25.06
2022-08-05T03:20:11.839Z,25.09
2022-08-05T03:22:44.174Z,25.09
2022-08-05T03:26:02.589Z,25.10
2022-08-05T03:28:07.169Z,25.12
2022-08-05T03:30:41.038Z,25.13
2022-08-05T03:33:11.423Z,25.14
2022-08-05T03:35:41.951Z,25.16
2022-08-05T03:38:14.829Z,25.09
2022-08-05T03:40:45.140Z,25.21
2022-08-05T03:44:09.702Z,25.21
2022-08-05T03:46:08.277Z,25.22
2022-08-05T03:48:37.260Z,25.27
2022-08-05T03:52:49.027Z,25.29
2022-08-05T03:55:49.827Z,25.31
2022-08-05T03:57:00.585Z,25.31
2022-08-05T03:59:47.252Z,25.38
2022-08-05T04:02:37.825Z,25.36
2022-08-05T04:05:10.286Z,25.30
2022-08-05T04:07:57.287Z,25.27
2022-08-05T04:10:37.228Z,25.12
2022-08-05T04:13:08.759Z,25.30
2022-08-05T04:15:37.714Z,25.33
2022-08-05T04:18:09.721Z,25.33
2022-08-05T04:20:41.396Z,25.35
2022-08-05T04:23:12.544Z,25.34
2022-08-05T04:26:00.705Z,25.33
2022-08-05T04:28:31.906Z,25.29
2022-08-05T04:31:02.009Z,25.29
2022-08-05T04:34:18.609Z,25.28
2022-08-05T04:36:44.825Z,25.28
2022-08-05T04:39:14.806Z,25.29
2022-08-05T04:41:45.624Z,25.33
2022-08-05T04:44:14.874Z,25.09
2022-08-05T04:46:49.964Z,25.32
2022-08-05T04:49:38.084Z,25.33
2022-08-05T04:52:08.431Z,25.34
2022-08-05T04:54:37.229Z,25.34
2022-08-05T04:57:07.771Z,25.33
2022-08-05T04:59:38.464Z,25.33
2022-08-05T05:02:37.468Z,25.34
2022-08-05T05:05:02.295Z,25.31
2022-08-05T05:07:35.323Z,25.35
2022-08-05T05:10:06.699Z,25.37
2022-08-05T05:12:37.144Z,25.38
2022-08-05T05:15:10.650Z,25.38
2022-08-05T05:17:55.670Z,25.37
2022-08-05T05:20:28.641Z,25.36
2022-08-05T05:22:57.867Z,25.38
2022-08-05T05:25:40.551Z,25.39
2022-08-05T05:28:11.530Z,25.40
2022-08-05T05:30:41.218Z,25.40
2022-08-05T05:33:16.170Z,25.45
2022-08-05T05:35:47.902Z,25.51
2022-08-05T05:38:22.786Z,25.57
2022-08-05T05:40:57.240Z,25.59
2022-08-05T05:43:58.051Z,25.60
2022-08-05T05:46:18.214Z,25.61
2022-08-05T05:48:49.102Z,25.61
2022-08-05T05:51:22.703Z,25.62
2022-08-05T05:53:57.997Z,25.60
2022-08-05T05:56:33.255Z,25.58
2022-08-05T05:59:06.709Z,25.57
2022-08-05T06:01:38.890Z,25.59
2022-08-05T06:04:11.914Z,25.60
2022-08-05T06:06:42.999Z,25.60
2022-08-05T06:09:16.789Z,25.64
2022-08-05T06:11:59.903Z,25.67
2022-08-05T06:14:33.440Z,25.71
2022-08-05T06:17:24.516Z,25.74
2022-08-05T06:19:57.040Z,25.75
2022-08-05T06:22:30.517Z,25.78
2022-08-05T06:25:24.471Z,25.78
2022-08-05T06:28:11.283Z,25.78
2022-08-05T06:30:42.369Z,25.81
2022-08-05T06:33:11.495Z,25.74
2022-08-05T06:36:08.025Z,25.89
2022-08-05T06:38:37.191Z,25.94
2022-08-05T06:41:07.681Z,25.99
2022-08-05T06:43:59.786Z,26.00
2022-08-05T06:46:29.821Z,26.03
2022-08-05T06:49:00.764Z,25.99
2022-08-05T06:51:31.422Z,26.03
2022-08-05T06:54:01.858Z,26.06
2022-08-05T06:56:33.893Z,26.13
2022-08-05T06:59:09.366Z,26.20
2022-08-05T07:01:41.547Z,26.26
2022-08-05T07:04:14.088Z,26.33
2022-08-05T07:06:43.287Z,26.42
2022-08-05T07:09:12.134Z,26.48
2022-08-05T07:11:46.688Z,26.51
2022-08-05T07:14:37.636Z,26.57
2022-08-05T07:18:01.904Z,26.57
2022-08-05T07:20:31.254Z,26.60
2022-08-05T07:22:45.996Z,26.67
2022-08-05T07:25:55.489Z,26.72
2022-08-05T07:28:08.339Z,26.68
2022-08-05T07:30:40.842Z,26.52
2022-08-05T07:33:16.897Z,26.79
2022-08-05T07:36:03.389Z,26.81
2022-08-05T07:38:43.307Z,26.84
2022-08-05T07:42:13.824Z,26.88
2022-08-05T07:44:14.236Z,26.92
2022-08-05T07:46:49.787Z,26.66
2022-08-05T07:49:20.745Z,27.04
2022-08-05T07:51:54.483Z,27.14
2022-08-05T07:54:30.925Z,27.61
2022-08-05T07:57:17.626Z,28.24
2022-08-05T07:59:51.881Z,28.92
2022-08-05T08:02:26.637Z,29.55
2022-08-05T08:05:01.677Z,29.98
2022-08-05T08:07:39.494Z,30.33
2022-08-05T08:10:20.547Z,30.59
2022-08-05T08:12:50.056Z,30.73
2022-08-05T08:16:34.423Z,30.82
2022-08-05T08:18:13.944Z,30.89
2022-08-05T08:21:01.805Z,30.99
2022-08-05T08:24:02.489Z,31.14
2022-08-05T08:26:26.710Z,31.24
2022-08-05T08:29:21.719Z,31.25
2022-08-05T08:31:48.859Z,31.22
2022-08-05T08:34:18.713Z,31.23
2022-08-05T08:37:04.872Z,31.30
2022-08-05T08:39:37.377Z,31.41
2022-08-05T08:42:33.769Z,31.52
2022-08-05T08:45:17.859Z,31.65
2022-08-05T08:48:12.485Z,31.80
2022-08-05T08:51:07.675Z,31.92
2022-08-05T08:53:44.294Z,32.05
2022-08-05T08:56:14.205Z,32.12
2022-08-05T08:58:47.957Z,31.78
2022-08-05T09:01:18.931Z,32.23
2022-08-05T09:03:54.245Z,32.32
2022-08-05T09:06:29.981Z,32.42
2022-08-05T09:09:03.117Z,32.44
2022-08-05T09:11:51.302Z,32.43
2022-08-05T09:14:56.728Z,32.43
2022-08-05T09:17:39.987Z,32.65
2022-08-05T09:20:05.286Z,32.84
2022-08-05T09:23:07.973Z,32.99
2022-08-05T09:26:00.104Z,33.10
2022-08-05T09:28:32.246Z,33.20
2022-08-05T09:31:22.731Z,33.17
2022-08-05T09:33:59.129Z,32.83
2022-08-05T09:36:54.366Z,33.78
2022-08-05T09:39:39.305Z,33.96
2022-08-05T09:42:20.224Z,34.13
2022-08-05T09:44:56.842Z,34.27
2022-08-05T09:47:35.178Z,34.42
2022-08-05T09:50:37.565Z,34.54
2022-08-05T09:53:07.270Z,34.70
2022-08-05T09:55:57.458Z,34.78
2022-08-05T09:58:30.182Z,34.66
2022-08-05T10:01:01.982Z,34.78
2022-08-05T10:03:59.372Z,35.02
2022-08-05T10:06:29.092Z,35.25
2022-08-05T10:09:25.192Z,35.24
2022-08-05T10:12:30.289Z,35.44
2022-08-05T10:15:22.717Z,35.55
2022-08-05T10:18:16.719Z,35.48
2022-08-05T10:20:48.589Z,35.51
2022-08-05T10:23:34.458Z,35.62
2022-08-05T10:26:13.843Z,35.79
2022-08-05T10:28:46.406Z,35.78
2022-08-05T10:33:00.861Z,36.14
2022-08-05T10:34:08.599Z,36.20
2022-08-05T10:36:39.295Z,36.20
2022-08-05T10:39:15.403Z,36.31
2022-08-05T10:42:01.417Z,36.48
2022-08-05T10:44:33.008Z,36.70
2022-08-05T10:47:27.069Z,36.74
2022-08-05T10:50:31.935Z,36.99
2022-08-05T10:53:00.072Z,37.02
2022-08-05T10:55:32.822Z,37.09
2022-08-05T10:58:20.808Z,37.16
2022-08-05T11:00:54.980Z,37.28
2022-08-05T11:03:30.936Z,37.41
2022-08-05T11:06:15.473Z,37.47
2022-08-05T11:09:18.699Z,37.44
2022-08-05T11:12:00.890Z,37.47
2022-08-05T11:14:57.502Z,37.47
2022-08-05T11:17:59.952Z,37.57
2022-08-05T11:20:38.929Z,37.61
2022-08-05T11:23:33.303Z,37.64
2022-08-05T11:26:29.110Z,37.73
2022-08-05T11:29:12.169Z,37.79
2022-08-05T11:31:57.971Z,37.76
2022-08-05T11:34:47.647Z,37.87
2022-08-05T11:38:36.626Z,37.94
2022-08-05T11:41:12.659Z,38.02
2022-08-05T11:44:06.033Z,37.96
2022-08-05T11:46:58.326Z,38.08
2022-08-05T11:49:26.974Z,38.17
2022-08-05T11:51:57.506Z,38.22
2022-08-05T11:54:34.007Z,38.15
2022-08-05T11:57:08.560Z,38.24
2022-08-05T11:59:53.647Z,38.33
2022-08-05T12:02:31.645Z,38.33
2022-08-05T12:05:07.219Z,38.22
2022-08-05T12:08:10.542Z,38.13
2022-08-05T12:10:43.806Z,38.08
2022-08-05T12:13:47.579Z,38.02
2022-08-05T12:16:14.764Z,38.06
2022-08-05T12:18:48.978Z,38.12
2022-08-05T12:21:24.263Z,38.14
2022-08-05T12:24:12.058Z,38.17
2022-08-05T12:26:44.268Z,38.19
2022-08-05T12:29:17.917Z,38.19
2022-08-05T12:31:54.593Z,38.06
2022-08-05T12:34:31.591Z,38.03
2022-08-05T12:37:10.800Z,38.11
2022-08-05T12:39:51.183Z,38.07
2022-08-05T12:42:25.162Z,38.09
2022-08-05T12:45:08.923Z,38.10
2022-08-05T12:47:43.500Z,38.17
2022-08-05T12:50:28.332Z,38.11
2022-08-05T12:53:00.873Z,38.05
2022-08-05T12:55:32.813Z,38.01
2022-08-05T12:58:50.751Z,37.99
2022-08-05T13:01:59.783Z,37.98
2022-08-05T13:03:43.329Z,37.82
2022-08-05T13:06:19.975Z,37.82
2022-08-05T13:08:52.106Z,37.84
2022-08-05T13:12:01.086Z,37.86
2022-08-05T13:14:14.744Z,37.86
2022-08-05T13:16:56.632Z,37.79
2022-08-05T13:19:27.571Z,37.90
2022-08-05T13:22:27.992Z,38.00
2022-08-05T13:25:05.168Z,38.12
2022-08-05T13:27:38.195Z,38.24
2022-08-05T13:30:33.726Z,37.92
2022-08-05T13:33:01.498Z,38.13
2022-08-05T13:35:42.716Z,38.00
2022-08-05T13:38:28.182Z,37.80
2022-08-05T13:41:00.714Z,37.73
2022-08-05T13:43:45.034Z,37.53
2022-08-05T13:46:30.678Z,37.71
2022-08-05T13:49:11.861Z,37.69
2022-08-05T13:51:46.604Z,37.75
2022-08-05T13:54:17.186Z,37.81
2022-08-05T13:56:50.947Z,37.90
2022-08-05T13:59:24.267Z,37.85
2022-08-05T14:01:57.528Z,37.91
2022-08-05T14:04:51.333Z,38.00
2022-08-05T14:07:57.010Z,37.85
2022-08-05T14:10:13.455Z,37.78
2022-08-05T14:12:48.701Z,37.72
2022-08-05T14:16:08.114Z,37.67
2022-08-05T14:18:14.947Z,37.44
2022-08-05T14:20:48.782Z,37.31
2022-08-05T14:23:24.728Z,37.21
2022-08-05T14:25:59.017Z,37.29
2022-08-05T14:28:29.721Z,37.17
2022-08-05T14:30:59.188Z,37.02
2022-08-05T14:33:56.599Z,36.82
2022-08-05T14:36:21.670Z,36.42
2022-08-05T14:38:52.080Z,36.15
2022-08-05T14:41:21.060Z,35.91
2022-08-05T14:44:01.646Z,35.51
2022-08-05T14:46:38.380Z,35.02
2022-08-05T14:49:08.435Z,34.81
2022-08-05T14:51:42.682Z,34.52
2022-08-05T14:54:27.918Z,34.16
2022-08-05T14:56:59.797Z,33.79
2022-08-05T14:59:35.451Z,33.47
2022-08-05T15:02:15.112Z,33.15
2022-08-05T15:04:47.885Z,32.84
2022-08-05T15:08:10.851Z,32.60
2022-08-05T15:10:10.133Z,32.17
2022-08-05T15:12:59.805Z,31.86
2022-08-05T15:15:55.049Z,31.40
2022-08-05T15:18:17.451Z,30.80
2022-08-05T15:20:48.070Z,30.20
2022-08-05T15:23:18.659Z,29.71
2022-08-05T15:25:53.861Z,29.13
2022-08-05T15:28:27.462Z,28.78
2022-08-05T15:30:56.984Z,28.59
2022-08-05T15:34:04.787Z,28.54
2022-08-05T15:36:17.412Z,28.47
2022-08-05T15:41:03.534Z,28.35
2022-08-05T15:41:57.591Z,28.24
2022-08-05T15:44:29.954Z,27.89
2022-08-05T15:46:59.658Z,27.63
2022-08-05T15:49:48.183Z,27.58
2022-08-05T15:52:51.618Z,27.42
2022-08-05T15:55:15.448Z,27.40
2022-08-05T15:57:49.087Z,27.32
2022-08-05T16:00:32.624Z,27.33
2022-08-05T16:03:07.755Z,27.00
2022-08-05T16:05:39.026Z,26.87
2022-08-05T16:08:11.267Z,26.77
2022-08-05T16:10:46.489Z,26.77
2022-08-05T16:13:19.388Z,26.82
2022-08-05T16:15:53.195Z,26.94
2022-08-05T16:18:21.979Z,27.05
2022-08-05T16:21:00.136Z,27.22
2022-08-05T16:23:54.620Z,27.37
2022-08-05T16:26:26.522Z,27.51
2022-08-05T16:28:56.578Z,27.73
2022-08-05T16:31:25.444Z,27.94
2022-08-05T16:33:54.547Z,28.09
2022-08-05T16:36:24.128Z,28.21
2022-08-05T16:38:55.671Z,28.37
2022-08-05T16:42:12.129Z,28.53
2022-08-05T16:44:17.815Z,28.54
2022-08-05T16:46:56.059Z,28.78
2022-08-05T16:49:26.803Z,28.83
2022-08-05T16:51:58.019Z,28.83
2022-08-05T16:54:32.956Z,28.84
2022-08-05T16:57:03.479Z,28.95
2022-08-05T16:59:35.536Z,29.05
2022-08-05T17:02:24.591Z,29.13
2022-08-05T17:04:57.119Z,29.19
2022-08-05T17:07:39.054Z,29.22
2022-08-05T17:10:13.292Z,29.24
2022-08-05T17:12:51.103Z,28.55
2022-08-05T17:15:21.231Z,29.19
2022-08-05T17:17:55.120Z,29.26
2022-08-05T17:20:26.613Z,29.36
2022-08-05T17:22:57.695Z,29.44
2022-08-05T17:25:40.067Z,29.51
2022-08-05T17:28:11.333Z,29.49
2022-08-05T17:30:51.907Z,29.50
2022-08-05T17:33:21.788Z,29.51
2022-08-05T17:36:07.376Z,29.55
2022-08-05T17:38:39.714Z,29.56
2022-08-05T17:41:11.557Z,29.56
2022-08-05T17:43:54.424Z,29.57
2022-08-05T17:46:23.991Z,29.60
2022-08-05T17:48:52.673Z,29.62
2022-08-05T17:51:22.262Z,29.66
2022-08-05T17:53:54.645Z,29.71
2022-08-05T17:56:23.869Z,29.70
2022-08-05T17:58:58.927Z,29.62
2022-08-05T18:01:27.807Z,29.67
2022-08-05T18:03:59.084Z,29.61
2022-08-05T18:06:33.208Z,29.50
2022-08-05T18:09:03.713Z,29.45
2022-08-05T18:11:33.870Z,29.44
2022-08-05T18:14:07.437Z,29.46
2022-08-05T18:16:50.912Z,29.46
2022-08-05T18:19:22.767Z,29.39
2022-08-05T18:22:07.692Z,29.27
2022-08-05T18:24:39.419Z,29.10
2022-08-05T18:27:12.579Z,29.04
2022-08-05T18:29:54.057Z,28.97
2022-08-05T18:32:27.840Z,28.80
2022-08-05T18:34:58.872Z,28.97
2022-08-05T18:37:33.963Z,28.92
2022-08-05T18:41:50.184Z,28.93
2022-08-05T18:42:59.722Z,28.85
2022-08-05T18:45:41.202Z,28.82
2022-08-05T18:48:12.062Z,28.73
2022-08-05T18:52:02.813Z,28.66
2022-08-05T18:54:07.097Z,28.55
2022-08-05T18:56:38.550Z,28.39
2022-08-05T18:59:44.142Z,28.33
2022-08-05T19:01:58.466Z,28.23
2022-08-05T19:04:27.542Z,28.04
2022-08-05T19:06:56.420Z,27.92
2022-08-05T19:09:25.245Z,27.76
2022-08-05T19:12:00.362Z,27.70
2022-08-05T19:14:37.729Z,27.58
2022-08-05T19:17:15.662Z,27.50
2022-08-05T19:19:46.367Z,27.55
2022-08-05T19:22:17.100Z,27.57
2022-08-05T19:24:56.298Z,27.54
2022-08-05T19:27:27.727Z,27.32
2022-08-05T19:29:59.576Z,27.17
2022-08-05T19:32:29.820Z,27.17
2022-08-05T19:34:58.731Z,27.07
2022-08-05T19:38:04.197Z,26.97
2022-08-05T19:40:24.357Z,26.83
2022-08-05T19:43:00.852Z,26.83
2022-08-05T19:45:36.980Z,26.81
2022-08-05T19:48:14.312Z,26.77
2022-08-05T19:50:43.960Z,26.74
2022-08-05T19:53:14.153Z,26.75
2022-08-05T19:56:14.766Z,26.74
2022-08-05T19:58:32.070Z,26.70
2022-08-05T20:01:28.075Z,26.52
2022-08-05T20:03:59.360Z,26.44
2022-08-05T20:06:29.580Z,26.35
2022-08-05T20:09:06.194Z,26.26
2022-08-05T20:11:47.996Z,26.17
2022-08-05T20:14:26.897Z,26.04
2022-08-05T20:16:59.479Z,25.91
2022-08-05T20:19:36.116Z,25.75
2022-08-05T20:22:09.956Z,25.63
2022-08-05T20:24:41.680Z,25.63
2022-08-05T20:27:11.161Z,25.67
2022-08-05T20:29:40.531Z,25.67
2022-08-05T20:32:10.377Z,25.59
2022-08-05T20:34:43.112Z,25.55
2022-08-05T20:37:17.711Z,25.45
2022-08-05T20:39:53.256Z,25.32
2022-08-05T20:42:28.172Z,25.20
2022-08-05T20:44:57.187Z,25.14
2022-08-05T20:47:32.184Z,25.12
2022-08-05T20:50:03.171Z,25.05
2022-08-05T20:52:36.246Z,25.03
2022-08-05T20:55:54.785Z,25.04
2022-08-05T20:57:59.839Z,25.01
2022-08-05T21:00:49.712Z,25.01
2022-08-05T21:03:20.535Z,25.00
2022-08-05T21:05:54.505Z,24.98
2022-08-05T21:08:26.891Z,24.90
2022-08-05T21:11:09.860Z,24.77
2022-08-05T21:13:47.443Z,24.73
2022-08-05T21:16:29.444Z,24.66
2022-08-05T21:19:00.907Z,24.62
2022-08-05T21:21:39.165Z,24.59
2022-08-05T21:24:15.427Z,24.54
2022-08-05T21:26:53.761Z,24.57
2022-08-05T21:29:31.858Z,24.66
2022-08-05T21:32:02.301Z,24.72
2022-08-05T21:34:33.067Z,24.79
2022-08-05T21:37:08.296Z,24.82
2022-08-05T21:39:40.458Z,24.85
2022-08-05T21:42:40.864Z,24.89
2022-08-05T21:45:00.625Z,24.90
2022-08-05T21:47:54.836Z,24.95
2022-08-05T21:50:19.717Z,24.99
2022-08-05T21:52:53.612Z,25.02
2022-08-05T21:56:01.006Z,25.06
2022-08-05T21:58:17.245Z,25.09
2022-08-05T22:00:50.937Z,25.18
2022-08-05T22:03:20.519Z,25.23
2022-08-05T22:06:09.246Z,25.32
2022-08-05T22:08:42.450Z,25.41
2022-08-05T22:11:15.580Z,25.46
2022-08-05T22:14:06.602Z,25.53
2022-08-05T22:16:50.775Z,25.58
2022-08-05T22:20:02.226Z,25.52
2022-08-05T22:22:10.083Z,25.65
2022-08-05T22:24:57.755Z,25.72
2022-08-05T22:28:10.474Z,25.73
2022-08-05T22:30:35.791Z,25.77
2022-08-05T22:33:15.722Z,25.77
2022-08-05T22:35:48.936Z,25.46
2022-08-05T22:38:18.943Z,25.80
2022-08-05T22:40:54.918Z,25.81
2022-08-05T22:43:36.713Z,25.83
2022-08-05T22:46:13.525Z,25.86
2022-08-05T22:48:52.599Z,25.89
2022-08-05T22:51:23.106Z,25.90
2022-08-05T22:54:10.326Z,25.88
2022-08-05T22:56:40.715Z,25.90
2022-08-05T22:59:48.576Z,25.88
2022-08-05T23:02:05.685Z,25.92
2022-08-05T23:04:36.719Z,26.06
2022-08-05T23:07:07.280Z,26.15
2022-08-05T23:09:58.141Z,26.18
2022-08-05T23:12:28.426Z,26.23
2022-08-05T23:14:57.806Z,26.26
2022-08-05T23:17:34.569Z,26.28
2022-08-05T23:20:16.831Z,26.29
2022-08-05T23:22:48.346Z,26.27
2022-08-05T23:25:51.779Z,26.29
2022-08-05T23:28:08.746Z,26.30
2022-08-05T23:30:40.194Z,26.29
2022-08-05T23:33:16.246Z,26.28
2022-08-05T23:35:52.424Z,26.15
2022-08-05T23:38:26.180Z,26.26
2022-08-05T23:40:55.864Z,26.27
2022-08-05T23:44:02.948Z,26.30
2022-08-05T23:46:21.251Z,26.28
2022-08-05T23:49:00.325Z,26.27
2022-08-05T23:51:51.654Z,26.09
2022-08-05T23:54:25.764Z,26.22
2022-08-05T23:57:03.159Z,26.24
